sensor_id;sensor_type;location;lat;lon;timestamp;P1;durP1;ratioP1;P2;durP2;ratioP2
42700;SDS011;28316;49.504;8.526;2023-02-20T00:01:26;9.00;;;1.50;;
42700;SDS011;28316;49.504;8.526;2023-02-20T00:03:53;5.57;;;1.40;;
42700;SDS011;28316;49.504;8.526;2023-02-20T00:06:19;6.80;;;1.65;;
42700;SDS011;28316;49.504;8.526;2023-02-20T00:08:44;6.47;;;1.25;;
42700;SDS011;28316;49.504;8.526;2023-02-20T00:11:10;6.38;;;2.08;;
42700;SDS011;28316;49.504;8.526;2023-02-20T00:13:36;3.38;;;1.30;;
42700;SDS011;28316;49.504;8.526;2023-02-20T00:16:02;3.78;;;1.60;;
42700;SDS011;28316;49.504;8.526;2023-02-20T00:18:28;3.00;;;1.58;;
42700;SDS011;28316;49.504;8.526;2023-02-20T00:20:54;4.85;;;2.45;;
42700;SDS011;28316;49.504;8.526;2023-02-20T00:23:20;2.63;;;1.42;;
42700;SDS011;28316;49.504;8.526;2023-02-20T00:25:46;7.82;;;1.83;;
42700;SDS011;28316;49.504;8.526;2023-02-20T00:28:12;3.53;;;1.17;;
42700;SDS011;28316;49.504;8.526;2023-02-20T00:30:38;1.58;;;0.80;;
42700;SDS011;28316;49.504;8.526;2023-02-20T00:33:04;5.55;;;1.00;;
42700;SDS011;28316;49.504;8.526;2023-02-20T00:35:29;4.82;;;2.05;;
42700;SDS011;28316;49.504;8.526;2023-02-20T00:37:55;5.57;;;1.52;;
42700;SDS011;28316;49.504;8.526;2023-02-20T00:40:22;6.75;;;1.75;;
42700;SDS011;28316;49.504;8.526;2023-02-20T00:42:50;1.92;;;1.33;;
42700;SDS011;28316;49.504;8.526;2023-02-20T00:45:16;8.27;;;1.27;;
42700;SDS011;28316;49.504;8.526;2023-02-20T00:47:42;3.58;;;1.52;;
42700;SDS011;28316;49.504;8.526;2023-02-20T00:50:09;3.58;;;1.17;;
42700;SDS011;28316;49.504;8.526;2023-02-20T00:52:37;1.98;;;1.13;;
42700;SDS011;28316;49.504;8.526;2023-02-20T00:55:03;3.25;;;1.20;;
42700;SDS011;28316;49.504;8.526;2023-02-20T00:57:29;5.00;;;1.15;;
42700;SDS011;28316;49.504;8.526;2023-02-20T00:59:55;3.42;;;1.45;;
42700;SDS011;28316;49.504;8.526;2023-02-20T01:02:21;7.57;;;1.67;;
42700;SDS011;28316;49.504;8.526;2023-02-20T01:04:47;3.63;;;1.17;;
42700;SDS011;28316;49.504;8.526;2023-02-20T01:07:13;2.47;;;1.30;;
42700;SDS011;28316;49.504;8.526;2023-02-20T01:09:39;3.92;;;1.45;;
42700;SDS011;28316;49.504;8.526;2023-02-20T01:12:05;7.90;;;1.25;;
42700;SDS011;28316;49.504;8.526;2023-02-20T01:14:31;6.35;;;1.90;;
42700;SDS011;28316;49.504;8.526;2023-02-20T01:16:57;3.42;;;1.17;;
42700;SDS011;28316;49.504;8.526;2023-02-20T01:19:23;1.55;;;1.17;;
42700;SDS011;28316;49.504;8.526;2023-02-20T01:21:49;3.03;;;1.42;;
42700;SDS011;28316;49.504;8.526;2023-02-20T01:24:15;3.08;;;1.30;;
42700;SDS011;28316;49.504;8.526;2023-02-20T01:26:43;6.32;;;1.35;;
42700;SDS011;28316;49.504;8.526;2023-02-20T01:29:10;8.18;;;1.58;;
42700;SDS011;28316;49.504;8.526;2023-02-20T01:31:37;12.77;;;1.90;;
42700;SDS011;28316;49.504;8.526;2023-02-20T01:34:03;7.22;;;1.90;;
42700;SDS011;28316;49.504;8.526;2023-02-20T01:36:29;3.72;;;0.77;;
42700;SDS011;28316;49.504;8.526;2023-02-20T01:38:55;2.38;;;1.15;;
42700;SDS011;28316;49.504;8.526;2023-02-20T01:41:22;6.15;;;1.55;;
42700;SDS011;28316;49.504;8.526;2023-02-20T01:43:49;5.35;;;1.85;;
42700;SDS011;28316;49.504;8.526;2023-02-20T01:48:58;2.35;;;1.23;;
42700;SDS011;28316;49.504;8.526;2023-02-20T01:51:36;5.70;;;1.80;;
42700;SDS011;28316;49.504;8.526;2023-02-20T01:56:35;9.07;;;1.30;;
42700;SDS011;28316;49.504;8.526;2023-02-20T01:59:01;8.20;;;2.17;;
42700;SDS011;28316;49.504;8.526;2023-02-20T02:01:31;5.07;;;1.58;;
42700;SDS011;28316;49.504;8.526;2023-02-20T02:03:59;2.60;;;1.48;;
42700;SDS011;28316;49.504;8.526;2023-02-20T02:06:31;5.25;;;0.80;;
42700;SDS011;28316;49.504;8.526;2023-02-20T02:09:04;6.57;;;1.83;;
42700;SDS011;28316;49.504;8.526;2023-02-20T02:11:39;3.78;;;1.98;;
42700;SDS011;28316;49.504;8.526;2023-02-20T02:14:05;1.95;;;1.05;;
42700;SDS011;28316;49.504;8.526;2023-02-20T02:28:40;6.07;;;1.42;;
42700;SDS011;28316;49.504;8.526;2023-02-20T02:31:54;3.85;;;1.25;;
42700;SDS011;28316;49.504;8.526;2023-02-20T02:37:39;3.97;;;1.63;;
42700;SDS011;28316;49.504;8.526;2023-02-20T02:41:00;3.67;;;2.05;;
42700;SDS011;28316;49.504;8.526;2023-02-20T02:44:21;3.13;;;1.67;;
42700;SDS011;28316;49.504;8.526;2023-02-20T02:47:21;4.80;;;1.23;;
42700;SDS011;28316;49.504;8.526;2023-02-20T02:50:31;4.40;;;1.35;;
42700;SDS011;28316;49.504;8.526;2023-02-20T02:53:03;6.90;;;1.60;;
42700;SDS011;28316;49.504;8.526;2023-02-20T02:55:32;6.45;;;1.73;;
42700;SDS011;28316;49.504;8.526;2023-02-20T02:57:58;1.63;;;0.80;;
42700;SDS011;28316;49.504;8.526;2023-02-20T03:00:26;2.03;;;0.98;;
42700;SDS011;28316;49.504;8.526;2023-02-20T03:03:35;3.13;;;1.20;;
42700;SDS011;28316;49.504;8.526;2023-02-20T03:06:06;2.08;;;1.38;;
42700;SDS011;28316;49.504;8.526;2023-02-20T03:08:42;5.07;;;2.80;;
42700;SDS011;28316;49.504;8.526;2023-02-20T03:11:20;3.28;;;2.30;;
42700;SDS011;28316;49.504;8.526;2023-02-20T03:16:54;6.65;;;2.70;;
42700;SDS011;28316;49.504;8.526;2023-02-20T03:19:25;4.30;;;1.48;;
42700;SDS011;28316;49.504;8.526;2023-02-20T03:21:57;6.80;;;1.38;;
42700;SDS011;28316;49.504;8.526;2023-02-20T03:24:26;4.50;;;1.50;;
42700;SDS011;28316;49.504;8.526;2023-02-20T03:26:56;6.57;;;2.35;;
42700;SDS011;28316;49.504;8.526;2023-02-20T03:29:31;1.95;;;1.25;;
42700;SDS011;28316;49.504;8.526;2023-02-20T03:32:04;4.80;;;2.05;;
42700;SDS011;28316;49.504;8.526;2023-02-20T03:34:53;5.00;;;1.85;;
42700;SDS011;28316;49.504;8.526;2023-02-20T03:37:40;6.90;;;2.08;;
42700;SDS011;28316;49.504;8.526;2023-02-20T03:40:28;4.47;;;1.70;;
42700;SDS011;28316;49.504;8.526;2023-02-20T03:43:16;3.85;;;1.85;;
42700;SDS011;28316;49.504;8.526;2023-02-20T03:45:58;5.82;;;2.05;;
42700;SDS011;28316;49.504;8.526;2023-02-20T03:48:36;3.55;;;1.73;;
42700;SDS011;28316;49.504;8.526;2023-02-20T03:51:07;5.18;;;1.52;;
42700;SDS011;28316;49.504;8.526;2023-02-20T03:53:53;7.57;;;1.92;;
42700;SDS011;28316;49.504;8.526;2023-02-20T03:56:21;4.85;;;1.35;;
42700;SDS011;28316;49.504;8.526;2023-02-20T03:59:02;2.40;;;1.38;;
42700;SDS011;28316;49.504;8.526;2023-02-20T04:01:38;5.32;;;2.15;;
42700;SDS011;28316;49.504;8.526;2023-02-20T04:04:10;4.32;;;2.40;;
42700;SDS011;28316;49.504;8.526;2023-02-20T04:06:42;5.53;;;1.90;;
42700;SDS011;28316;49.504;8.526;2023-02-20T04:09:11;5.95;;;2.45;;
42700;SDS011;28316;49.504;8.526;2023-02-20T04:11:53;6.70;;;2.25;;
42700;SDS011;28316;49.504;8.526;2023-02-20T04:14:25;5.05;;;2.38;;
42700;SDS011;28316;49.504;8.526;2023-02-20T04:16:54;6.35;;;1.60;;
42700;SDS011;28316;49.504;8.526;2023-02-20T04:19:26;4.35;;;1.60;;
42700;SDS011;28316;49.504;8.526;2023-02-20T04:21:54;5.63;;;2.28;;
42700;SDS011;28316;49.504;8.526;2023-02-20T04:24:27;13.87;;;2.70;;
42700;SDS011;28316;49.504;8.526;2023-02-20T04:26:59;3.60;;;1.65;;
42700;SDS011;28316;49.504;8.526;2023-02-20T04:29:25;9.65;;;1.65;;
42700;SDS011;28316;49.504;8.526;2023-02-20T04:31:52;3.97;;;1.85;;
42700;SDS011;28316;49.504;8.526;2023-02-20T04:34:17;5.80;;;2.65;;
42700;SDS011;28316;49.504;8.526;2023-02-20T04:36:43;11.93;;;3.05;;
42700;SDS011;28316;49.504;8.526;2023-02-20T04:39:09;4.10;;;1.98;;
42700;SDS011;28316;49.504;8.526;2023-02-20T04:41:35;12.98;;;2.75;;
42700;SDS011;28316;49.504;8.526;2023-02-20T04:44:00;3.78;;;1.90;;
42700;SDS011;28316;49.504;8.526;2023-02-20T04:46:44;7.55;;;2.30;;
42700;SDS011;28316;49.504;8.526;2023-02-20T04:49:10;11.18;;;2.05;;
42700;SDS011;28316;49.504;8.526;2023-02-20T04:51:36;14.00;;;2.25;;
42700;SDS011;28316;49.504;8.526;2023-02-20T04:54:02;8.57;;;2.63;;
42700;SDS011;28316;49.504;8.526;2023-02-20T04:56:27;7.63;;;1.48;;
42700;SDS011;28316;49.504;8.526;2023-02-20T04:58:53;5.65;;;1.92;;
42700;SDS011;28316;49.504;8.526;2023-02-20T05:01:19;6.32;;;2.10;;
42700;SDS011;28316;49.504;8.526;2023-02-20T05:03:44;12.60;;;2.75;;
42700;SDS011;28316;49.504;8.526;2023-02-20T05:06:10;4.05;;;2.05;;
42700;SDS011;28316;49.504;8.526;2023-02-20T05:08:36;12.05;;;1.73;;
42700;SDS011;28316;49.504;8.526;2023-02-20T05:11:02;4.30;;;2.20;;
42700;SDS011;28316;49.504;8.526;2023-02-20T05:13:27;8.73;;;2.53;;
42700;SDS011;28316;49.504;8.526;2023-02-20T05:15:53;13.30;;;2.85;;
42700;SDS011;28316;49.504;8.526;2023-02-20T05:18:22;3.83;;;1.85;;
42700;SDS011;28316;49.504;8.526;2023-02-20T05:20:52;4.82;;;1.83;;
42700;SDS011;28316;49.504;8.526;2023-02-20T05:23:36;6.80;;;3.03;;
42700;SDS011;28316;49.504;8.526;2023-02-20T05:26:02;6.07;;;2.35;;
42700;SDS011;28316;49.504;8.526;2023-02-20T05:30:59;6.53;;;2.00;;
42700;SDS011;28316;49.504;8.526;2023-02-20T05:33:25;10.68;;;2.95;;
42700;SDS011;28316;49.504;8.526;2023-02-20T05:35:50;6.78;;;3.28;;
42700;SDS011;28316;49.504;8.526;2023-02-20T05:38:16;7.72;;;3.60;;
42700;SDS011;28316;49.504;8.526;2023-02-20T05:40:43;5.30;;;2.67;;
42700;SDS011;28316;49.504;8.526;2023-02-20T05:43:09;7.10;;;2.83;;
42700;SDS011;28316;49.504;8.526;2023-02-20T05:45:35;4.90;;;3.35;;
42700;SDS011;28316;49.504;8.526;2023-02-20T05:48:00;6.63;;;2.85;;
42700;SDS011;28316;49.504;8.526;2023-02-20T05:50:26;4.53;;;2.63;;
42700;SDS011;28316;49.504;8.526;2023-02-20T05:52:52;6.05;;;1.98;;
42700;SDS011;28316;49.504;8.526;2023-02-20T05:55:18;6.38;;;2.58;;
42700;SDS011;28316;49.504;8.526;2023-02-20T05:57:43;12.10;;;2.63;;
42700;SDS011;28316;49.504;8.526;2023-02-20T06:00:09;6.35;;;2.45;;
42700;SDS011;28316;49.504;8.526;2023-02-20T06:02:35;11.05;;;3.30;;
42700;SDS011;28316;49.504;8.526;2023-02-20T06:05:02;3.75;;;2.60;;
42700;SDS011;28316;49.504;8.526;2023-02-20T06:07:29;4.80;;;2.50;;
42700;SDS011;28316;49.504;8.526;2023-02-20T06:09:55;7.75;;;3.38;;
42700;SDS011;28316;49.504;8.526;2023-02-20T06:12:21;6.65;;;3.15;;
42700;SDS011;28316;49.504;8.526;2023-02-20T06:14:47;7.90;;;3.97;;
42700;SDS011;28316;49.504;8.526;2023-02-20T06:17:13;7.30;;;2.35;;
42700;SDS011;28316;49.504;8.526;2023-02-20T06:19:38;14.70;;;4.35;;
42700;SDS011;28316;49.504;8.526;2023-02-20T06:22:04;6.20;;;3.03;;
42700;SDS011;28316;49.504;8.526;2023-02-20T06:24:30;3.90;;;1.73;;
42700;SDS011;28316;49.504;8.526;2023-02-20T06:26:56;13.30;;;2.78;;
42700;SDS011;28316;49.504;8.526;2023-02-20T06:29:22;7.22;;;2.97;;
42700;SDS011;28316;49.504;8.526;2023-02-20T06:31:48;8.88;;;2.90;;
42700;SDS011;28316;49.504;8.526;2023-02-20T06:34:14;6.32;;;3.42;;
42700;SDS011;28316;49.504;8.526;2023-02-20T06:36:41;5.25;;;2.90;;
42700;SDS011;28316;49.504;8.526;2023-02-20T06:39:07;8.25;;;2.67;;
42700;SDS011;28316;49.504;8.526;2023-02-20T06:41:35;6.05;;;3.47;;
42700;SDS011;28316;49.504;8.526;2023-02-20T06:44:01;7.68;;;2.97;;
42700;SDS011;28316;49.504;8.526;2023-02-20T06:46:27;5.63;;;2.15;;
42700;SDS011;28316;49.504;8.526;2023-02-20T06:48:56;9.23;;;3.30;;
42700;SDS011;28316;49.504;8.526;2023-02-20T06:51:24;4.70;;;2.88;;
42700;SDS011;28316;49.504;8.526;2023-02-20T06:53:54;7.00;;;3.40;;
42700;SDS011;28316;49.504;8.526;2023-02-20T06:56:21;13.13;;;3.70;;
42700;SDS011;28316;49.504;8.526;2023-02-20T06:58:51;7.38;;;3.65;;
42700;SDS011;28316;49.504;8.526;2023-02-20T07:01:19;16.70;;;4.82;;
42700;SDS011;28316;49.504;8.526;2023-02-20T07:03:47;5.32;;;2.58;;
42700;SDS011;28316;49.504;8.526;2023-02-20T07:06:14;6.00;;;2.10;;
42700;SDS011;28316;49.504;8.526;2023-02-20T07:08:41;8.27;;;3.25;;
42700;SDS011;28316;49.504;8.526;2023-02-20T07:11:07;13.55;;;3.88;;
42700;SDS011;28316;49.504;8.526;2023-02-20T07:13:33;9.75;;;4.60;;
42700;SDS011;28316;49.504;8.526;2023-02-20T07:15:58;7.18;;;3.05;;
42700;SDS011;28316;49.504;8.526;2023-02-20T07:18:24;5.18;;;2.50;;
42700;SDS011;28316;49.504;8.526;2023-02-20T07:20:51;5.85;;;3.17;;
42700;SDS011;28316;49.504;8.526;2023-02-20T07:23:18;8.27;;;3.22;;
42700;SDS011;28316;49.504;8.526;2023-02-20T07:25:44;4.65;;;2.88;;
42700;SDS011;28316;49.504;8.526;2023-02-20T07:28:11;10.55;;;3.38;;
42700;SDS011;28316;49.504;8.526;2023-02-20T07:30:38;5.68;;;2.53;;
42700;SDS011;28316;49.504;8.526;2023-02-20T07:33:04;9.98;;;2.40;;
42700;SDS011;28316;49.504;8.526;2023-02-20T07:35:29;21.70;;;3.05;;
42700;SDS011;28316;49.504;8.526;2023-02-20T07:37:55;7.90;;;3.58;;
42700;SDS011;28316;49.504;8.526;2023-02-20T07:40:21;17.23;;;2.95;;
42700;SDS011;28316;49.504;8.526;2023-02-20T07:42:47;19.08;;;3.42;;
42700;SDS011;28316;49.504;8.526;2023-02-20T07:45:12;9.93;;;2.80;;
42700;SDS011;28316;49.504;8.526;2023-02-20T07:47:38;13.18;;;3.67;;
42700;SDS011;28316;49.504;8.526;2023-02-20T07:50:04;3.92;;;2.50;;
42700;SDS011;28316;49.504;8.526;2023-02-20T07:52:30;5.22;;;2.95;;
42700;SDS011;28316;49.504;8.526;2023-02-20T07:54:56;9.32;;;3.42;;
42700;SDS011;28316;49.504;8.526;2023-02-20T07:57:22;7.78;;;2.90;;
42700;SDS011;28316;49.504;8.526;2023-02-20T07:59:48;7.70;;;3.15;;
42700;SDS011;28316;49.504;8.526;2023-02-20T08:02:13;5.80;;;2.72;;
42700;SDS011;28316;49.504;8.526;2023-02-20T08:04:39;4.25;;;2.72;;
42700;SDS011;28316;49.504;8.526;2023-02-20T08:07:05;13.13;;;3.03;;
42700;SDS011;28316;49.504;8.526;2023-02-20T08:09:31;6.70;;;2.45;;
42700;SDS011;28316;49.504;8.526;2023-02-20T08:11:57;9.40;;;2.30;;
42700;SDS011;28316;49.504;8.526;2023-02-20T08:14:23;14.32;;;3.10;;
42700;SDS011;28316;49.504;8.526;2023-02-20T08:16:49;4.85;;;2.67;;
42700;SDS011;28316;49.504;8.526;2023-02-20T08:19:15;6.03;;;2.42;;
42700;SDS011;28316;49.504;8.526;2023-02-20T08:21:40;4.95;;;2.47;;
42700;SDS011;28316;49.504;8.526;2023-02-20T08:24:06;6.93;;;3.15;;
42700;SDS011;28316;49.504;8.526;2023-02-20T08:26:32;11.13;;;3.15;;
42700;SDS011;28316;49.504;8.526;2023-02-20T08:28:59;3.58;;;2.30;;
42700;SDS011;28316;49.504;8.526;2023-02-20T08:31:25;9.45;;;3.47;;
42700;SDS011;28316;49.504;8.526;2023-02-20T08:33:52;4.88;;;2.53;;
42700;SDS011;28316;49.504;8.526;2023-02-20T08:36:18;14.52;;;2.55;;
42700;SDS011;28316;49.504;8.526;2023-02-20T08:38:44;8.07;;;2.72;;
42700;SDS011;28316;49.504;8.526;2023-02-20T08:41:10;7.72;;;2.33;;
42700;SDS011;28316;49.504;8.526;2023-02-20T08:43:37;11.60;;;3.50;;
42700;SDS011;28316;49.504;8.526;2023-02-20T08:46:05;8.88;;;2.40;;
42700;SDS011;28316;49.504;8.526;2023-02-20T08:48:31;9.60;;;2.05;;
42700;SDS011;28316;49.504;8.526;2023-02-20T08:50:58;8.65;;;3.10;;
42700;SDS011;28316;49.504;8.526;2023-02-20T08:53:23;6.07;;;2.35;;
42700;SDS011;28316;49.504;8.526;2023-02-20T08:55:49;4.55;;;1.50;;
42700;SDS011;28316;49.504;8.526;2023-02-20T08:58:19;5.43;;;2.35;;
42700;SDS011;28316;49.504;8.526;2023-02-20T09:00:47;10.23;;;3.40;;
42700;SDS011;28316;49.504;8.526;2023-02-20T09:03:14;7.82;;;2.40;;
42700;SDS011;28316;49.504;8.526;2023-02-20T09:05:40;6.15;;;2.78;;
42700;SDS011;28316;49.504;8.526;2023-02-20T09:08:07;5.05;;;1.90;;
42700;SDS011;28316;49.504;8.526;2023-02-20T09:10:33;7.63;;;2.83;;
42700;SDS011;28316;49.504;8.526;2023-02-20T09:12:59;4.60;;;2.33;;
42700;SDS011;28316;49.504;8.526;2023-02-20T09:15:25;5.72;;;2.25;;
42700;SDS011;28316;49.504;8.526;2023-02-20T09:17:51;9.10;;;3.70;;
42700;SDS011;28316;49.504;8.526;2023-02-20T09:20:18;9.13;;;2.47;;
42700;SDS011;28316;49.504;8.526;2023-02-20T09:22:45;9.32;;;1.80;;
42700;SDS011;28316;49.504;8.526;2023-02-20T09:25:15;6.63;;;2.58;;
42700;SDS011;28316;49.504;8.526;2023-02-20T09:27:42;7.10;;;2.15;;
42700;SDS011;28316;49.504;8.526;2023-02-20T09:30:08;13.55;;;2.88;;
42700;SDS011;28316;49.504;8.526;2023-02-20T09:32:37;2.88;;;1.80;;
42700;SDS011;28316;49.504;8.526;2023-02-20T09:35:03;5.07;;;2.08;;
42700;SDS011;28316;49.504;8.526;2023-02-20T09:37:29;4.68;;;2.05;;
42700;SDS011;28316;49.504;8.526;2023-02-20T09:39:55;11.68;;;2.58;;
42700;SDS011;28316;49.504;8.526;2023-02-20T09:42:22;6.10;;;2.40;;
42700;SDS011;28316;49.504;8.526;2023-02-20T09:45:10;8.63;;;2.85;;
42700;SDS011;28316;49.504;8.526;2023-02-20T09:53:45;8.73;;;2.15;;
42700;SDS011;28316;49.504;8.526;2023-02-20T09:56:52;10.50;;;2.23;;
42700;SDS011;28316;49.504;8.526;2023-02-20T10:02:16;6.20;;;2.95;;
42700;SDS011;28316;49.504;8.526;2023-02-20T10:05:02;11.65;;;3.25;;
42700;SDS011;28316;49.504;8.526;2023-02-20T10:07:49;14.10;;;3.20;;
42700;SDS011;28316;49.504;8.526;2023-02-20T10:18:45;7.93;;;3.00;;
42700;SDS011;28316;49.504;8.526;2023-02-20T10:21:50;10.93;;;3.35;;
42700;SDS011;28316;49.504;8.526;2023-02-20T10:27:53;4.85;;;2.35;;
42700;SDS011;28316;49.504;8.526;2023-02-20T10:33:35;4.40;;;2.30;;
42700;SDS011;28316;49.504;8.526;2023-02-20T10:36:13;2.88;;;1.70;;
42700;SDS011;28316;49.504;8.526;2023-02-20T10:38:54;6.60;;;2.15;;
42700;SDS011;28316;49.504;8.526;2023-02-20T10:44:20;7.15;;;1.92;;
42700;SDS011;28316;49.504;8.526;2023-02-20T10:47:17;4.18;;;2.22;;
42700;SDS011;28316;49.504;8.526;2023-02-20T10:50:08;10.45;;;2.63;;
42700;SDS011;28316;49.504;8.526;2023-02-20T10:58:15;4.88;;;2.25;;
42700;SDS011;28316;49.504;8.526;2023-02-20T11:01:05;8.23;;;2.85;;
42700;SDS011;28316;49.504;8.526;2023-02-20T11:06:20;5.07;;;2.28;;
42700;SDS011;28316;49.504;8.526;2023-02-20T11:08:53;9.05;;;1.85;;
42700;SDS011;28316;49.504;8.526;2023-02-20T11:13:56;9.95;;;1.92;;
42700;SDS011;28316;49.504;8.526;2023-02-20T11:16:41;6.68;;;2.10;;
42700;SDS011;28316;49.504;8.526;2023-02-20T11:19:20;11.27;;;2.65;;
42700;SDS011;28316;49.504;8.526;2023-02-20T11:21:54;6.82;;;2.17;;
42700;SDS011;28316;49.504;8.526;2023-02-20T11:24:33;8.65;;;2.15;;
42700;SDS011;28316;49.504;8.526;2023-02-20T11:27:05;8.60;;;2.55;;
42700;SDS011;28316;49.504;8.526;2023-02-20T11:33:13;9.88;;;2.13;;
42700;SDS011;28316;49.504;8.526;2023-02-20T11:35:52;7.38;;;2.10;;
42700;SDS011;28316;49.504;8.526;2023-02-20T11:38:25;4.90;;;1.77;;
42700;SDS011;28316;49.504;8.526;2023-02-20T11:41:00;3.58;;;1.70;;
42700;SDS011;28316;49.504;8.526;2023-02-20T11:49:48;2.83;;;1.58;;
42700;SDS011;28316;49.504;8.526;2023-02-20T11:52:32;5.53;;;2.17;;
42700;SDS011;28316;49.504;8.526;2023-02-20T11:55:09;7.80;;;1.60;;
42700;SDS011;28316;49.504;8.526;2023-02-20T11:57:45;12.20;;;2.38;;
42700;SDS011;28316;49.504;8.526;2023-02-20T12:00:14;6.55;;;2.35;;
42700;SDS011;28316;49.504;8.526;2023-02-20T12:02:54;9.65;;;2.00;;
42700;SDS011;28316;49.504;8.526;2023-02-20T12:05:36;5.78;;;2.25;;
42700;SDS011;28316;49.504;8.526;2023-02-20T12:08:03;8.77;;;2.72;;
42700;SDS011;28316;49.504;8.526;2023-02-20T12:11:08;6.05;;;1.98;;
42700;SDS011;28316;49.504;8.526;2023-02-20T12:13:41;4.43;;;1.60;;
42700;SDS011;28316;49.504;8.526;2023-02-20T12:19:15;6.60;;;1.50;;
42700;SDS011;28316;49.504;8.526;2023-02-20T12:33:46;4.00;;;1.38;;
42700;SDS011;28316;49.504;8.526;2023-02-20T12:36:51;3.00;;;0.95;;
42700;SDS011;28316;49.504;8.526;2023-02-20T12:42:16;5.22;;;1.35;;
42700;SDS011;28316;49.504;8.526;2023-02-20T12:48:06;4.95;;;1.20;;
42700;SDS011;28316;49.504;8.526;2023-02-20T12:50:58;5.97;;;1.55;;
42700;SDS011;28316;49.504;8.526;2023-02-20T12:59:51;3.58;;;1.23;;
42700;SDS011;28316;49.504;8.526;2023-02-20T13:05:25;4.57;;;1.40;;
42700;SDS011;28316;49.504;8.526;2023-02-20T13:07:56;1.77;;;0.70;;
42700;SDS011;28316;49.504;8.526;2023-02-20T13:10:29;7.75;;;1.30;;
42700;SDS011;28316;49.504;8.526;2023-02-20T13:12:58;5.30;;;1.37;;
42700;SDS011;28316;49.504;8.526;2023-02-20T13:18:09;3.28;;;1.00;;
42700;SDS011;28316;49.504;8.526;2023-02-20T13:20:57;5.10;;;1.02;;
42700;SDS011;28316;49.504;8.526;2023-02-20T13:23:30;4.63;;;0.88;;
42700;SDS011;28316;49.504;8.526;2023-02-20T13:26:01;5.25;;;1.10;;
42700;SDS011;28316;49.504;8.526;2023-02-20T13:28:48;6.57;;;1.00;;
42700;SDS011;28316;49.504;8.526;2023-02-20T13:31:39;4.70;;;1.00;;
42700;SDS011;28316;49.504;8.526;2023-02-20T13:41:55;2.83;;;1.15;;
42700;SDS011;28316;49.504;8.526;2023-02-20T13:46:59;2.15;;;0.90;;
42700;SDS011;28316;49.504;8.526;2023-02-20T13:54:58;3.33;;;1.00;;
42700;SDS011;28316;49.504;8.526;2023-02-20T13:57:29;2.55;;;1.50;;
42700;SDS011;28316;49.504;8.526;2023-02-20T13:59:58;5.70;;;0.75;;
42700;SDS011;28316;49.504;8.526;2023-02-20T14:02:26;1.33;;;0.88;;
42700;SDS011;28316;49.504;8.526;2023-02-20T14:04:56;1.70;;;0.70;;
42700;SDS011;28316;49.504;8.526;2023-02-20T14:07:35;2.25;;;0.90;;
42700;SDS011;28316;49.504;8.526;2023-02-20T14:10:18;4.43;;;1.15;;
42700;SDS011;28316;49.504;8.526;2023-02-20T14:13:11;2.90;;;0.95;;
42700;SDS011;28316;49.504;8.526;2023-02-20T14:15:44;4.68;;;1.30;;
42700;SDS011;28316;49.504;8.526;2023-02-20T14:18:34;3.85;;;1.30;;
42700;SDS011;28316;49.504;8.526;2023-02-20T14:21:19;3.78;;;1.20;;
42700;SDS011;28316;49.504;8.526;2023-02-20T14:23:49;4.35;;;1.30;;
42700;SDS011;28316;49.504;8.526;2023-02-20T14:26:21;3.83;;;1.17;;
42700;SDS011;28316;49.504;8.526;2023-02-20T14:28:54;6.45;;;1.20;;
42700;SDS011;28316;49.504;8.526;2023-02-20T14:34:06;4.63;;;1.40;;
42700;SDS011;28316;49.504;8.526;2023-02-20T14:42:03;2.13;;;0.80;;
42700;SDS011;28316;49.504;8.526;2023-02-20T14:44:31;2.55;;;1.40;;
42700;SDS011;28316;49.504;8.526;2023-02-20T14:47:00;3.10;;;1.30;;
42700;SDS011;28316;49.504;8.526;2023-02-20T14:49:35;3.35;;;1.20;;
42700;SDS011;28316;49.504;8.526;2023-02-20T14:52:21;5.25;;;1.70;;
42700;SDS011;28316;49.504;8.526;2023-02-20T14:54:56;3.65;;;1.13;;
42700;SDS011;28316;49.504;8.526;2023-02-20T14:57:26;14.45;;;1.83;;
42700;SDS011;28316;49.504;8.526;2023-02-20T15:02:41;3.45;;;0.82;;
42700;SDS011;28316;49.504;8.526;2023-02-20T15:05:13;2.47;;;1.55;;
42700;SDS011;28316;49.504;8.526;2023-02-20T15:07:43;4.22;;;0.98;;
42700;SDS011;28316;49.504;8.526;2023-02-20T15:13:04;6.82;;;1.38;;
42700;SDS011;28316;49.504;8.526;2023-02-20T15:15:36;10.40;;;1.38;;
42700;SDS011;28316;49.504;8.526;2023-02-20T15:18:14;2.17;;;1.10;;
42700;SDS011;28316;49.504;8.526;2023-02-20T15:21:02;4.00;;;1.52;;
42700;SDS011;28316;49.504;8.526;2023-02-20T15:23:32;2.40;;;1.17;;
42700;SDS011;28316;49.504;8.526;2023-02-20T15:26:43;6.35;;;1.80;;
42700;SDS011;28316;49.504;8.526;2023-02-20T15:29:11;5.75;;;1.33;;
42700;SDS011;28316;49.504;8.526;2023-02-20T15:31:56;4.38;;;0.80;;
42700;SDS011;28316;49.504;8.526;2023-02-20T15:34:24;3.72;;;0.93;;
42700;SDS011;28316;49.504;8.526;2023-02-20T15:36:58;7.03;;;1.52;;
42700;SDS011;28316;49.504;8.526;2023-02-20T15:39:24;1.58;;;0.85;;
42700;SDS011;28316;49.504;8.526;2023-02-20T15:41:50;5.07;;;1.60;;
42700;SDS011;28316;49.504;8.526;2023-02-20T15:44:17;4.88;;;1.67;;
42700;SDS011;28316;49.504;8.526;2023-02-20T15:46:44;1.63;;;1.00;;
42700;SDS011;28316;49.504;8.526;2023-02-20T15:49:10;7.28;;;1.40;;
42700;SDS011;28316;49.504;8.526;2023-02-20T15:51:37;10.85;;;2.05;;
42700;SDS011;28316;49.504;8.526;2023-02-20T15:54:06;1.80;;;0.80;;
42700;SDS011;28316;49.504;8.526;2023-02-20T15:56:39;4.72;;;2.67;;
42700;SDS011;28316;49.504;8.526;2023-02-20T15:59:06;4.43;;;1.48;;
42700;SDS011;28316;49.504;8.526;2023-02-20T16:01:35;1.33;;;0.80;;
42700;SDS011;28316;49.504;8.526;2023-02-20T16:04:02;3.65;;;1.38;;
42700;SDS011;28316;49.504;8.526;2023-02-20T16:06:28;8.30;;;1.05;;
42700;SDS011;28316;49.504;8.526;2023-02-20T16:08:53;2.78;;;1.02;;
42700;SDS011;28316;49.504;8.526;2023-02-20T16:11:20;3.55;;;0.80;;
42700;SDS011;28316;49.504;8.526;2023-02-20T16:13:54;3.53;;;1.92;;
42700;SDS011;28316;49.504;8.526;2023-02-20T16:16:28;7.82;;;1.30;;
42700;SDS011;28316;49.504;8.526;2023-02-20T16:21:42;2.30;;;0.85;;
42700;SDS011;28316;49.504;8.526;2023-02-20T16:24:09;2.85;;;1.05;;
42700;SDS011;28316;49.504;8.526;2023-02-20T16:26:36;2.60;;;1.08;;
42700;SDS011;28316;49.504;8.526;2023-02-20T16:29:07;4.78;;;1.67;;
42700;SDS011;28316;49.504;8.526;2023-02-20T16:34:17;6.45;;;1.15;;
42700;SDS011;28316;49.504;8.526;2023-02-20T16:36:44;5.90;;;2.70;;
42700;SDS011;28316;49.504;8.526;2023-02-20T16:39:10;2.67;;;0.98;;
42700;SDS011;28316;49.504;8.526;2023-02-20T16:41:36;2.30;;;1.13;;
42700;SDS011;28316;49.504;8.526;2023-02-20T16:44:05;3.47;;;0.90;;
42700;SDS011;28316;49.504;8.526;2023-02-20T16:47:00;1.88;;;0.93;;
42700;SDS011;28316;49.504;8.526;2023-02-20T16:49:27;23.95;;;1.70;;
42700;SDS011;28316;49.504;8.526;2023-02-20T16:51:52;5.40;;;1.17;;
42700;SDS011;28316;49.504;8.526;2023-02-20T16:54:26;1.60;;;1.00;;
42700;SDS011;28316;49.504;8.526;2023-02-20T16:56:52;1.67;;;0.77;;
42700;SDS011;28316;49.504;8.526;2023-02-20T16:59:18;6.03;;;2.00;;
42700;SDS011;28316;49.504;8.526;2023-02-20T17:01:46;3.38;;;1.00;;
42700;SDS011;28316;49.504;8.526;2023-02-20T17:04:13;6.30;;;1.38;;
42700;SDS011;28316;49.504;8.526;2023-02-20T17:06:40;4.45;;;1.00;;
42700;SDS011;28316;49.504;8.526;2023-02-20T17:09:05;2.13;;;1.33;;
42700;SDS011;28316;49.504;8.526;2023-02-20T17:11:31;3.83;;;1.15;;
42700;SDS011;28316;49.504;8.526;2023-02-20T17:13:57;4.80;;;1.02;;
42700;SDS011;28316;49.504;8.526;2023-02-20T17:16:23;1.75;;;1.00;;
42700;SDS011;28316;49.504;8.526;2023-02-20T17:18:48;5.13;;;1.08;;
42700;SDS011;28316;49.504;8.526;2023-02-20T17:21:14;6.75;;;1.30;;
42700;SDS011;28316;49.504;8.526;2023-02-20T17:23:40;6.43;;;1.35;;
42700;SDS011;28316;49.504;8.526;2023-02-20T17:26:07;5.05;;;1.05;;
42700;SDS011;28316;49.504;8.526;2023-02-20T17:28:33;2.63;;;1.02;;
42700;SDS011;28316;49.504;8.526;2023-02-20T17:31:00;2.72;;;0.90;;